Time;durP1;ratioP1;P1;durP2;ratioP2;P2;SDS_P1;SDS_P2;PMS_P1;PMS_P2;Temp;Humidity;BMP_temperature;BMP_pressure;BME280_temperature;BME280_humidity;BME280_pressure;Samples;Min_cycle;Max_cycle;Signal;HPM_P1;HPM_P2
2022/02/21 00:02:23;;;;;;;3.45;0.90;;;7.70;99.90;;;;;;5015767;28;20029;-84
2022/02/21 00:04:48;;;;;;;5.50;0.98;;;7.70;99.90;;;;;;5015675;28;20025;-84
2022/02/21 00:07:15;;;;;;;1.77;0.90;;;7.70;99.90;;;;;;5033620;28;20018;-82
2022/02/21 00:09:41;;;;;;;1.90;0.70;;;7.70;99.90;;;;;;4999489;28;20032;-83
2022/02/21 00:12:07;;;;;;;2.15;1.02;;;7.70;99.90;;;;;;5015557;28;20022;-83
2022/02/21 00:14:33;;;;;;;3.15;0.90;;;7.70;99.90;;;;;;5016352;28;20029;-84
2022/02/21 00:16:59;;;;;;;4.68;1.10;;;7.70;99.90;;;;;;5016382;28;20493;-84
2022/02/21 00:19:24;;;;;;;4.13;1.05;;;7.70;99.90;;;;;;5015478;28;20036;-84
2022/02/21 00:21:50;;;;;;;3.53;1.27;;;7.70;99.90;;;;;;5015603;28;20025;-83
2022/02/21 00:24:16;;;;;;;4.28;1.25;;;7.70;99.90;;;;;;5015532;28;20481;-83
2022/02/21 00:26:42;;;;;;;4.25;1.25;;;7.70;99.90;;;;;;5015658;28;20033;-83
2022/02/21 00:29:08;;;;;;;2.83;0.93;;;7.70;99.90;;;;;;5015567;28;20070;-83
2022/02/21 00:31:35;;;;;;;3.50;1.10;;;7.70;99.90;;;;;;5015572;28;20021;-83
2022/02/21 00:34:01;;;;;;;5.55;0.90;;;7.70;99.90;;;;;;5033439;28;20026;-82
2022/02/21 00:36:26;;;;;;;4.07;1.00;;;7.70;99.90;;;;;;5015597;28;20395;-82
2022/02/21 00:38:52;;;;;;;3.85;1.20;;;7.70;99.90;;;;;;5015437;28;20029;-82
2022/02/21 00:41:17;;;;;;;4.38;1.27;;;7.70;99.90;;;;;;5032986;28;20180;-83
2022/02/21 00:43:43;;;;;;;4.15;1.00;;;7.70;99.90;;;;;;5033280;28;20032;-82
2022/02/21 00:46:09;;;;;;;4.25;1.00;;;7.70;99.90;;;;;;5015302;28;20064;-82
2022/02/21 00:48:34;;;;;;;5.18;1.20;;;7.70;99.90;;;;;;5015203;28;20025;-83
2022/02/21 00:51:00;;;;;;;4.28;1.00;;;7.70;99.90;;;;;;5015275;28;20026;-83
2022/02/21 00:53:26;;;;;;;3.05;1.20;;;7.70;99.90;;;;;;5015259;28;20032;-86
2022/02/21 00:55:51;;;;;;;3.63;1.00;;;7.70;99.90;;;;;;5015403;28;20080;-83
2022/02/21 00:58:17;;;;;;;5.13;1.05;;;7.70;99.90;;;;;;5015346;28;20032;-83
2022/02/21 01:00:43;;;;;;;4.90;1.00;;;7.70;99.90;;;;;;5015145;28;20112;-82
2022/02/21 01:03:09;;;;;;;3.38;1.10;;;7.70;99.90;;;;;;5028055;28;20128;-83
2022/02/21 01:05:40;;;;;;;2.90;0.95;;;7.70;99.90;;;;;;5051339;28;20461;-84
2022/02/21 01:08:08;;;;;;;3.28;1.23;;;7.70;99.90;;;;;;5052622;28;20096;-83
2022/02/21 01:10:38;;;;;;;5.60;1.50;;;7.70;99.90;;;;;;5051284;28;20116;-82
2022/02/21 01:13:05;;;;;;;5.75;1.40;;;7.70;99.90;;;;;;5051629;28;20082;-85
2022/02/21 01:15:31;;;;;;;4.65;0.98;;;7.70;99.90;;;;;;5051545;28;20029;-82
2022/02/21 01:17:57;;;;;;;6.43;1.08;;;7.70;99.90;;;;;;5051510;28;20025;-88
2022/02/21 01:20:23;;;;;;;4.03;1.40;;;7.70;99.90;;;;;;5051297;28;20025;-85
2022/02/21 01:22:48;;;;;;;3.47;0.65;;;7.70;99.90;;;;;;5051157;28;20110;-83
2022/02/21 01:25:14;;;;;;;4.18;1.02;;;7.60;99.90;;;;;;5051126;28;20036;-84
2022/02/21 01:27:40;;;;;;;3.00;1.13;;;7.60;99.90;;;;;;5052328;28;20107;-84
2022/02/21 01:30:07;;;;;;;5.88;1.50;;;7.70;99.90;;;;;;5056292;28;20102;-85
2022/02/21 01:32:34;;;;;;;6.57;1.17;;;7.60;99.90;;;;;;5056140;28;20021;-84
2022/02/21 01:34:59;;;;;;;3.63;1.30;;;7.60;99.90;;;;;;5056108;28;20048;-84
2022/02/21 01:37:25;;;;;;;4.47;1.13;;;7.60;99.90;;;;;;5056187;28;20071;-84
2022/02/21 01:39:51;;;;;;;4.25;1.13;;;7.60;99.90;;;;;;5054876;28;20548;-84
2022/02/21 01:42:16;;;;;;;3.70;0.90;;;7.60;99.90;;;;;;5056234;28;20035;-83
2022/02/21 01:44:46;;;;;;;4.60;1.23;;;7.60;99.90;;;;;;5054651;28;20032;-84
2022/02/21 01:47:14;;;;;;;3.75;1.15;;;7.60;99.90;;;;;;5054661;28;20100;-83
2022/02/21 01:49:40;;;;;;;6.25;1.40;;;7.60;99.90;;;;;;5054678;28;20021;-88
2022/02/21 01:52:07;;;;;;;4.25;1.13;;;7.60;99.90;;;;;;5054660;28;20472;-87
2022/02/21 01:54:33;;;;;;;3.78;1.10;;;7.60;99.90;;;;;;5054173;28;20033;-86
2022/02/21 01:56:59;;;;;;;6.30;1.23;;;7.60;99.90;;;;;;5054520;28;20546;-84
2022/02/21 01:59:25;;;;;;;2.75;1.17;;;7.60;99.90;;;;;;5054308;28;20396;-85
2022/02/21 02:01:52;;;;;;;5.85;0.98;;;7.60;99.90;;;;;;5054386;28;20489;-82
2022/02/21 02:04:17;;;;;;;5.18;1.20;;;7.60;99.90;;;;;;5037934;28;20053;-83
2022/02/21 02:06:43;;;;;;;3.53;1.08;;;7.60;99.90;;;;;;5017837;28;20389;-86
2022/02/21 02:09:09;;;;;;;4.97;1.17;;;7.60;99.90;;;;;;5017996;28;20384;-84
2022/02/21 02:11:37;;;;;;;3.90;1.05;;;7.60;99.90;;;;;;5018069;28;20025;-85
2022/02/21 02:14:03;;;;;;;4.25;1.27;;;7.60;99.90;;;;;;5017779;28;20492;-83
2022/02/21 02:16:29;;;;;;;2.35;1.00;;;7.60;99.90;;;;;;5017897;28;20034;-86
2022/02/21 02:18:55;;;;;;;2.78;0.90;;;7.60;99.90;;;;;;5017661;28;20504;-84
2022/02/21 02:21:23;;;;;;;3.15;1.13;;;7.60;99.90;;;;;;5017489;28;20025;-83
2022/02/21 02:23:50;;;;;;;4.18;0.90;;;7.60;99.90;;;;;;5017439;28;20025;-84
2022/02/21 02:26:17;;;;;;;2.35;0.80;;;7.60;99.90;;;;;;5017302;28;20392;-83
2022/02/21 02:28:45;;;;;;;3.58;0.85;;;7.60;99.90;;;;;;5017170;28;20026;-83
2022/02/21 02:31:11;;;;;;;3.65;1.10;;;7.60;99.90;;;;;;5017218;28;20555;-85
2022/02/21 02:33:39;;;;;;;3.60;0.98;;;7.60;99.90;;;;;;5017835;28;20022;-85
2022/02/21 02:36:05;;;;;;;2.72;1.00;;;7.60;99.90;;;;;;5018101;28;20025;-84
2022/02/21 02:38:31;;;;;;;3.25;1.00;;;7.60;99.90;;;;;;5017028;28;20025;-85
2022/02/21 02:40:57;;;;;;;3.85;0.82;;;7.60;99.90;;;;;;5017192;28;20018;-83
2022/02/21 02:43:24;;;;;;;2.85;0.70;;;7.60;99.90;;;;;;5035047;28;20030;-84
2022/02/21 02:45:51;;;;;;;3.03;1.02;;;7.60;99.90;;;;;;5034748;28;20026;-82
2022/02/21 02:48:16;;;;;;;1.85;0.85;;;7.70;99.90;;;;;;5017057;28;20022;-82
2022/02/21 02:50:42;;;;;;;3.60;0.70;;;7.60;99.90;;;;;;5017275;28;20040;-87
2022/02/21 02:53:08;;;;;;;4.60;0.90;;;7.60;99.90;;;;;;5017109;28;20021;-82
2022/02/21 02:55:33;;;;;;;5.13;0.70;;;7.60;99.90;;;;;;5017355;28;20108;-84
2022/02/21 02:57:59;;;;;;;1.20;0.80;;;7.60;99.90;;;;;;5017049;28;20434;-87
2022/02/21 03:00:26;;;;;;;2.78;0.80;;;7.60;99.90;;;;;;5016644;28;20052;-85
2022/02/21 03:02:52;;;;;;;2.35;0.75;;;7.60;99.90;;;;;;5025243;28;20053;-86
2022/02/21 03:05:18;;;;;;;3.17;0.70;;;7.60;99.90;;;;;;5054228;28;20028;-85
2022/02/21 03:07:43;;;;;;;3.22;0.90;;;7.60;99.90;;;;;;5054215;28;20013;-84
2022/02/21 03:10:09;;;;;;;1.90;0.70;;;7.60;99.90;;;;;;5053094;28;20043;-87
2022/02/21 03:12:34;;;;;;;2.75;0.95;;;7.60;99.90;;;;;;5052858;28;20425;-86
2022/02/21 03:15:00;;;;;;;3.60;1.00;;;7.60;99.90;;;;;;5054059;28;20025;-83
2022/02/21 03:17:26;;;;;;;4.18;1.13;;;7.60;99.90;;;;;;5053191;28;20031;-87
2022/02/21 03:19:52;;;;;;;2.58;0.95;;;7.60;99.90;;;;;;5052831;28;20028;-85
2022/02/21 03:22:18;;;;;;;2.00;0.73;;;7.60;99.90;;;;;;5052846;28;20033;-83
2022/02/21 03:24:43;;;;;;;2.45;0.88;;;7.60;99.90;;;;;;5053878;28;20480;-84
2022/02/21 03:27:09;;;;;;;2.88;0.73;;;7.60;99.90;;;;;;5052827;28;20082;-84
2022/02/21 03:29:34;;;;;;;2.70;0.90;;;7.60;99.90;;;;;;5052808;28;20021;-87
2022/02/21 03:32:00;;;;;;;1.73;0.60;;;7.60;99.90;;;;;;5053781;28;20025;-85
2022/02/21 03:34:26;;;;;;;3.00;1.05;;;7.60;99.90;;;;;;5053018;28;20111;-87
2022/02/21 03:36:51;;;;;;;2.67;0.93;;;7.60;99.90;;;;;;5052783;28;20025;-89
2022/02/21 03:39:17;;;;;;;1.33;0.68;;;7.60;99.90;;;;;;5053538;28;20449;-93
2022/02/21 03:41:43;;;;;;;2.17;0.80;;;7.60;99.90;;;;;;5052675;28;20515;-85
2022/02/21 03:44:09;;;;;;;4.32;0.90;;;7.60;99.90;;;;;;5053686;28;20079;-89
2022/02/21 03:46:37;;;;;;;3.50;0.88;;;7.60;99.90;;;;;;5052495;28;20029;-84
2022/02/21 03:49:04;;;;;;;2.85;0.80;;;7.60;99.90;;;;;;5052103;28;20111;-85
2022/02/21 03:51:30;;;;;;;2.42;0.80;;;7.60;99.90;;;;;;5052900;28;20056;-84
2022/02/21 03:53:55;;;;;;;4.20;1.00;;;7.60;99.90;;;;;;5051969;28;20056;-85
2022/02/21 03:56:21;;;;;;;2.45;0.63;;;7.60;99.90;;;;;;5053330;28;20480;-86
2022/02/21 03:58:47;;;;;;;4.03;0.50;;;7.60;99.90;;;;;;5053275;28;20459;-85
2022/02/21 04:01:13;;;;;;;1.10;0.57;;;7.60;99.90;;;;;;5052088;28;20032;-87
2022/02/21 04:03:39;;;;;;;1.33;0.45;;;7.50;99.90;;;;;;5040923;28;20087;-87
2022/02/21 04:06:04;;;;;;;1.25;0.50;;;7.50;99.90;;;;;;5033560;28;20045;-88
2022/02/21 04:08:30;;;;;;;2.40;0.77;;;7.50;99.90;;;;;;5015662;28;20018;-87
2022/02/21 04:10:57;;;;;;;1.10;0.50;;;7.50;99.90;;;;;;5015713;28;20026;-90
2022/02/21 04:13:22;;;;;;;2.65;0.63;;;7.50;99.90;;;;;;5016180;28;20037;-92
2022/02/21 04:15:48;;;;;;;2.88;0.60;;;7.50;99.90;;;;;;5033949;28;20025;-93
2022/02/21 04:18:14;;;;;;;1.20;0.50;;;7.50;99.90;;;;;;5016516;28;20125;-93
2022/02/21 04:20:39;;;;;;;2.53;0.50;;;7.40;99.90;;;;;;5016519;28;20037;-93
2022/02/21 04:23:05;;;;;;;1.85;0.50;;;7.40;99.90;;;;;;5016548;28;20086;-93
2022/02/21 04:25:31;;;;;;;1.83;0.70;;;7.40;99.90;;;;;;5034057;28;20473;-91
2022/02/21 04:27:57;;;;;;;4.00;0.80;;;7.40;99.90;;;;;;5016546;28;20053;-92
2022/02/21 04:30:25;;;;;;;1.88;0.60;;;7.30;99.90;;;;;;5016513;28;20384;-92
2022/02/21 04:32:52;;;;;;;2.40;0.77;;;7.30;99.90;;;;;;5016188;28;20068;-91
2022/02/21 04:35:19;;;;;;;3.03;0.60;;;7.30;99.90;;;;;;5016246;28;20124;-90
2022/02/21 04:37:46;;;;;;;5.82;0.80;;;7.30;99.90;;;;;;5016163;28;20112;-89
2022/02/21 04:40:14;;;;;;;2.60;1.02;;;7.30;99.90;;;;;;5016196;28;20040;-91
2022/02/21 04:42:40;;;;;;;2.30;0.85;;;7.30;99.90;;;;;;5016304;28;20022;-91
2022/02/21 04:45:07;;;;;;;3.30;0.70;;;7.30;99.90;;;;;;5016504;28;20079;-89
2022/02/21 04:47:33;;;;;;;4.47;0.90;;;7.30;99.90;;;;;;5016127;28;20499;-90
2022/02/21 04:49:58;;;;;;;3.08;0.75;;;7.30;99.90;;;;;;5016587;28;20018;-90
2022/02/21 04:52:24;;;;;;;2.55;0.90;;;7.30;99.90;;;;;;5016133;28;20049;-91
2022/02/21 04:54:50;;;;;;;1.08;0.70;;;7.30;99.90;;;;;;5016208;28;20559;-91
2022/02/21 04:57:16;;;;;;;2.38;0.70;;;7.30;99.90;;;;;;5016287;28;20033;-91
2022/02/21 04:59:42;;;;;;;4.63;0.95;;;7.30;99.90;;;;;;5015732;28;20030;-91
2022/02/21 05:02:07;;;;;;;4.53;0.93;;;7.30;99.90;;;;;;5034101;28;20512;-89
2022/02/21 05:04:33;;;;;;;1.40;0.70;;;7.30;99.90;;;;;;5055570;28;20048;-88
2022/02/21 05:06:59;;;;;;;4.97;1.20;;;7.30;99.90;;;;;;5057555;28;20544;-89
2022/02/21 05:09:25;;;;;;;7.20;1.10;;;7.30;99.90;;;;;;5055691;28;20021;-89
2022/02/21 05:11:51;;;;;;;4.10;1.08;;;7.30;99.90;;;;;;5057041;28;20029;-88
2022/02/21 05:14:16;;;;;;;3.33;0.95;;;7.30;99.90;;;;;;5056109;28;20025;-88
2022/02/21 05:16:43;;;;;;;6.95;1.30;;;7.30;99.90;;;;;;5055883;28;20408;-88
2022/02/21 05:19:09;;;;;;;5.57;1.25;;;7.30;99.90;;;;;;5055848;28;20395;-90
2022/02/21 05:21:35;;;;;;;3.08;1.05;;;7.30;99.90;;;;;;5056906;28;20105;-89
2022/02/21 05:24:00;;;;;;;5.78;1.20;;;7.30;99.90;;;;;;5055430;28;20032;-92
2022/02/21 05:26:26;;;;;;;5.13;1.40;;;7.30;99.90;;;;;;5055611;28;20053;-88
2022/02/21 05:28:52;;;;;;;7.07;1.50;;;7.20;99.90;;;;;;5056390;28;20032;-90
2022/02/21 05:31:19;;;;;;;6.15;1.45;;;7.30;99.90;;;;;;5055674;28;20112;-88
2022/02/21 05:33:45;;;;;;;6.35;1.50;;;7.20;99.90;;;;;;5056230;28;20029;-88
2022/02/21 05:36:12;;;;;;;8.18;1.33;;;7.20;99.90;;;;;;5055249;28;20079;-87
2022/02/21 05:38:37;;;;;;;5.30;1.17;;;7.20;99.90;;;;;;5055599;28;20021;-90
2022/02/21 05:41:03;;;;;;;6.07;1.45;;;7.20;99.90;;;;;;5055804;28;20032;-88
2022/02/21 05:43:29;;;;;;;7.88;1.40;;;7.20;99.90;;;;;;5055130;28;20163;-89
2022/02/21 05:45:54;;;;;;;8.43;1.73;;;7.20;99.90;;;;;;5056459;28;20044;-88
2022/02/21 05:48:20;;;;;;;5.97;1.50;;;7.20;99.90;;;;;;5055440;28;20021;-89
2022/02/21 05:50:46;;;;;;;6.00;1.50;;;7.20;99.90;;;;;;5055980;28;20028;-89
2022/02/21 05:53:11;;;;;;;4.25;1.50;;;7.20;99.90;;;;;;5055057;28;20028;-88
2022/02/21 05:55:37;;;;;;;7.15;1.48;;;7.20;99.90;;;;;;5055311;28;20047;-89
2022/02/21 05:58:03;;;;;;;12.70;1.98;;;7.20;99.90;;;;;;5055367;28;20029;-87
2022/02/21 06:00:29;;;;;;;8.85;1.95;;;7.20;99.90;;;;;;5055135;28;20025;-89
2022/02/21 06:02:55;;;;;;;6.32;1.70;;;7.20;99.90;;;;;;5055122;28;20076;-89
2022/02/21 06:05:21;;;;;;;10.18;1.83;;;7.20;99.90;;;;;;5054638;28;20057;-88
2022/02/21 06:07:46;;;;;;;7.47;1.75;;;7.20;99.90;;;;;;5055444;28;20027;-90
2022/02/21 06:10:12;;;;;;;8.35;1.95;;;7.20;99.90;;;;;;5054831;28;20067;-89
2022/02/21 06:12:38;;;;;;;8.60;1.88;;;7.20;99.90;;;;;;5054688;28;20017;-88
2022/02/21 06:15:04;;;;;;;7.10;1.58;;;7.20;99.90;;;;;;5054123;28;20031;-89
2022/02/21 06:17:30;;;;;;;5.72;1.50;;;7.20;99.90;;;;;;5054244;28;20032;-89
2022/02/21 06:19:56;;;;;;;4.55;1.50;;;7.20;99.90;;;;;;5054794;28;20021;-88
2022/02/21 06:22:21;;;;;;;4.32;1.27;;;7.20;99.90;;;;;;5054450;28;20029;-89
2022/02/21 06:24:47;;;;;;;7.25;1.70;;;7.20;99.90;;;;;;5054237;28;20493;-87
2022/02/21 06:27:13;;;;;;;10.40;1.67;;;7.20;99.90;;;;;;5055261;28;20025;-88
2022/02/21 06:29:39;;;;;;;7.70;1.70;;;7.10;99.90;;;;;;5055515;28;20017;-87
2022/02/21 06:32:06;;;;;;;7.75;2.45;;;7.10;99.90;;;;;;5054984;28;20116;-88
2022/02/21 06:34:32;;;;;;;8.23;1.50;;;7.10;99.90;;;;;;5054274;28;20025;-87
2022/02/21 06:36:58;;;;;;;9.18;1.92;;;7.10;99.90;;;;;;5054430;28;20086;-88
2022/02/21 06:39:23;;;;;;;8.55;1.67;;;7.10;99.90;;;;;;5053633;28;20090;-89
2022/02/21 06:41:50;;;;;;;11.18;2.00;;;7.10;99.90;;;;;;5055441;28;20028;-88
2022/02/21 06:44:17;;;;;;;6.03;1.85;;;7.10;99.90;;;;;;5054174;28;20029;-89
2022/02/21 06:46:44;;;;;;;8.77;1.85;;;7.10;99.90;;;;;;5053860;28;20428;-85
2022/02/21 06:49:12;;;;;;;9.93;2.08;;;7.10;99.90;;;;;;5055403;28;20017;-88
2022/02/21 06:51:38;;;;;;;11.93;2.50;;;7.10;99.90;;;;;;5054584;28;20368;-87
2022/02/21 06:54:05;;;;;;;7.97;1.85;;;7.10;99.90;;;;;;5053865;28;20025;-86
2022/02/21 06:56:31;;;;;;;9.73;1.92;;;7.00;99.90;;;;;;5037463;28;20067;-87
2022/02/21 06:58:57;;;;;;;10.40;2.28;;;7.10;99.90;;;;;;5054994;28;20033;-86
2022/02/21 07:01:23;;;;;;;7.97;1.77;;;7.10;99.90;;;;;;5053430;28;20029;-87
2022/02/21 07:03:49;;;;;;;7.97;1.98;;;7.10;99.90;;;;;;5053287;28;20052;-87
2022/02/21 07:06:15;;;;;;;9.13;1.77;;;7.10;99.90;;;;;;5053152;28;20392;-87
2022/02/21 07:08:42;;;;;;;5.60;1.67;;;7.10;99.90;;;;;;5053257;28;20552;-86
2022/02/21 07:11:11;;;;;;;12.45;1.88;;;7.10;99.90;;;;;;5054178;28;20485;-86
2022/02/21 07:13:37;;;;;;;14.55;2.53;;;7.10;99.90;;;;;;5052807;28;20035;-86
2022/02/21 07:16:03;;;;;;;7.10;2.03;;;7.10;99.90;;;;;;5053199;28;20112;-87
2022/02/21 07:18:29;;;;;;;9.82;2.00;;;7.60;99.90;;;;;;5052808;28;20465;-87
2022/02/21 07:20:55;;;;;;;8.32;1.88;;;8.20;99.90;;;;;;5052780;28;20029;-86
2022/02/21 07:23:21;;;;;;;9.30;2.25;;;8.70;99.90;;;;;;5054234;28;20037;-86
2022/02/21 07:25:47;;;;;;;8.80;1.95;;;9.00;99.90;;;;;;5052332;28;20052;-86
2022/02/21 07:28:15;;;;;;;11.38;2.42;;;9.10;99.90;;;;;;5053514;28;20511;-87
2022/02/21 07:30:41;;;;;;;8.43;2.00;;;9.40;99.90;;;;;;5053333;28;20090;-87
2022/02/21 07:33:07;;;;;;;11.88;2.17;;;9.80;99.90;;;;;;5052808;28;20049;-87
2022/02/21 07:35:33;;;;;;;12.05;1.88;;;10.40;99.90;;;;;;5053045;28;20510;-89
2022/02/21 07:37:59;;;;;;;9.00;2.15;;;10.80;99.90;;;;;;5052854;28;20077;-87
2022/02/21 07:40:25;;;;;;;6.68;1.77;;;10.90;99.90;;;;;;5052684;28;20164;-86
2022/02/21 07:42:53;;;;;;;8.30;1.98;;;10.80;99.90;;;;;;5052667;28;20025;-86
2022/02/21 07:45:20;;;;;;;11.50;2.35;;;10.60;99.90;;;;;;5052193;28;20025;-86
2022/02/21 07:47:52;;;;;;;10.60;2.20;;;10.60;99.90;;;;;;5052444;28;20480;-87
2022/02/21 07:50:19;;;;;;;9.82;2.10;;;11.00;99.90;;;;;;5052686;28;20029;-86
2022/02/21 07:52:45;;;;;;;13.65;2.53;;;10.90;99.90;;;;;;5052467;28;20230;-89
2022/02/21 07:55:12;;;;;;;10.55;2.70;;;10.90;99.90;;;;;;5052361;28;20029;-86
2022/02/21 07:57:42;;;;;;;12.05;2.10;;;10.20;99.90;;;;;;5052808;28;20025;-90
2022/02/21 08:00:10;;;;;;;15.70;2.72;;;9.60;99.90;;;;;;5052378;28;20385;-87
2022/02/21 08:02:39;;;;;;;14.82;2.15;;;9.40;99.90;;;;;;5052332;28;20049;-86
2022/02/21 08:05:06;;;;;;;10.57;2.47;;;9.10;99.90;;;;;;5053605;28;20503;-89
2022/02/21 08:07:32;;;;;;;11.18;2.53;;;9.10;99.90;;;;;;5052019;28;20017;-86
2022/02/21 08:09:58;;;;;;;7.32;1.98;;;9.40;99.90;;;;;;5053037;28;20045;-85
2022/02/21 08:12:24;;;;;;;11.60;2.45;;;9.60;99.90;;;;;;5052067;28;20079;-85
2022/02/21 08:14:50;;;;;;;11.88;2.47;;;9.60;99.90;;;;;;5051943;28;20029;-85
2022/02/21 08:17:15;;;;;;;11.13;2.38;;;9.50;99.90;;;;;;5035660;28;20519;-87
2022/02/21 08:19:41;;;;;;;16.00;2.55;;;9.60;99.90;;;;;;5052100;28;20020;-85
2022/02/21 08:22:08;;;;;;;6.38;2.15;;;9.50;99.90;;;;;;5051837;28;20021;-85
2022/02/21 08:24:34;;;;;;;7.80;2.33;;;9.30;99.90;;;;;;5051878;28;20104;-86
2022/02/21 08:26:59;;;;;;;11.93;2.53;;;9.10;99.90;;;;;;5052490;28;20060;-86
2022/02/21 08:29:25;;;;;;;8.30;2.30;;;9.00;99.90;;;;;;5053351;28;20022;-85
2022/02/21 08:31:54;;;;;;;10.15;2.47;;;9.10;99.90;;;;;;5051898;28;20473;-86
2022/02/21 08:34:20;;;;;;;10.35;2.13;;;9.20;99.90;;;;;;5052177;28;20158;-86
2022/02/21 08:36:46;;;;;;;9.80;2.45;;;9.20;99.90;;;;;;5053194;28;20078;-84
2022/02/21 08:39:12;;;;;;;8.80;2.45;;;9.00;99.90;;;;;;5055946;28;20497;-87
2022/02/21 08:41:38;;;;;;;13.88;2.45;;;8.70;99.90;;;;;;5055877;28;20025;-86
2022/02/21 08:44:05;;;;;;;13.45;2.75;;;8.50;99.90;;;;;;5057350;28;20097;-84
2022/02/21 08:46:31;;;;;;;15.85;2.40;;;8.30;99.90;;;;;;5055727;28;20558;-85
2022/02/21 08:48:58;;;;;;;11.30;2.47;;;8.10;99.90;;;;;;5057170;28;20055;-85
2022/02/21 08:51:25;;;;;;;10.35;2.67;;;8.00;99.90;;;;;;5055732;28;20017;-84
2022/02/21 08:53:50;;;;;;;11.70;2.35;;;7.90;99.90;;;;;;5055473;28;20056;-85
2022/02/21 08:56:16;;;;;;;10.98;2.70;;;7.90;99.90;;;;;;5057320;28;20064;-85
2022/02/21 08:58:42;;;;;;;10.60;2.15;;;7.90;99.90;;;;;;5057016;28;20021;-86
2022/02/21 09:01:08;;;;;;;15.18;2.50;;;7.80;99.90;;;;;;5055606;28;20049;-84
2022/02/21 09:03:33;;;;;;;13.90;2.88;;;7.80;99.90;;;;;;5055297;28;20080;-86
2022/02/21 09:05:59;;;;;;;12.73;2.33;;;7.80;99.90;;;;;;5055263;28;20035;-84
2022/02/21 09:08:25;;;;;;;12.05;2.30;;;7.80;99.90;;;;;;5055341;28;20031;-85
2022/02/21 09:10:51;;;;;;;14.93;2.63;;;7.80;99.90;;;;;;5055473;28;20017;-85
2022/02/21 09:13:18;;;;;;;11.18;2.33;;;7.80;99.90;;;;;;5055117;28;20024;-85
2022/02/21 09:15:43;;;;;;;9.25;2.47;;;7.80;99.90;;;;;;5055131;28;20082;-85
2022/02/21 09:18:09;;;;;;;13.73;3.00;;;7.90;99.90;;;;;;5055280;28;20029;-85
2022/02/21 09:20:36;;;;;;;11.60;2.58;;;8.00;99.90;;;;;;5055298;28;20025;-85
2022/02/21 09:23:03;;;;;;;7.10;2.33;;;8.10;99.90;;;;;;5055068;28;20035;-85
2022/02/21 09:25:29;;;;;;;13.27;2.60;;;8.20;99.90;;;;;;5054846;28;20504;-85
2022/02/21 09:27:55;;;;;;;12.60;2.90;;;8.20;99.90;;;;;;5054998;28;20020;-84
2022/02/21 09:30:21;;;;;;;14.68;2.88;;;8.10;99.90;;;;;;5055212;28;20087;-84
2022/02/21 09:32:47;;;;;;;14.10;2.80;;;8.00;99.90;;;;;;5055004;28;20388;-84
2022/02/21 09:35:13;;;;;;;11.05;2.53;;;7.90;99.90;;;;;;5055038;28;20488;-84
2022/02/21 09:37:40;;;;;;;11.65;2.42;;;7.90;99.90;;;;;;5054875;28;20025;-84
2022/02/21 09:40:09;;;;;;;16.65;2.60;;;7.80;99.90;;;;;;5054736;28;20031;-83
2022/02/21 09:42:37;;;;;;;10.02;2.30;;;7.70;99.90;;;;;;5054816;28;20117;-83
2022/02/21 09:45:05;;;;;;;11.52;2.38;;;7.70;99.90;;;;;;5055183;28;20048;-83
2022/02/21 09:47:31;;;;;;;13.68;2.40;;;7.70;99.90;;;;;;5054344;28;20437;-83
2022/02/21 09:49:57;;;;;;;9.98;2.28;;;7.70;99.90;;;;;;5053863;28;20029;-84
2022/02/21 09:52:25;;;;;;;15.15;2.90;;;7.70;99.90;;;;;;5054444;28;20032;-83
2022/02/21 09:54:51;;;;;;;14.77;2.58;;;7.80;99.90;;;;;;5054567;28;20037;-84
2022/02/21 09:57:17;;;;;;;11.90;2.45;;;7.70;99.90;;;;;;5054394;28;20029;-85
2022/02/21 09:59:43;;;;;;;13.30;2.55;;;7.70;99.90;;;;;;5054343;28;20119;-84
2022/02/21 10:02:23;;;;;;;11.55;2.67;;;7.70;99.90;;;;;;5054484;28;20040;-84
2022/02/21 10:05:17;;;;;;;14.10;2.67;;;7.80;99.90;;;;;;5055487;28;20143;-83
2022/02/21 10:07:44;;;;;;;9.20;2.08;;;7.90;99.90;;;;;;5054104;28;20036;-84
2022/02/21 10:10:12;;;;;;;12.93;2.60;;;8.00;99.90;;;;;;5054093;28;20442;-84
2022/02/21 10:12:49;;;;;;;13.93;3.30;;;8.00;99.90;;;;;;5055284;28;20032;-82
2022/02/21 10:15:26;;;;;;;17.15;2.92;;;8.00;99.90;;;;;;5055427;28;20021;-83
2022/02/21 10:18:08;;;;;;;10.18;2.75;;;8.20;99.90;;;;;;5054257;28;20396;-84
2022/02/21 10:20:54;;;;;;;14.05;2.72;;;8.30;99.90;;;;;;5054152;28;20032;-84
2022/02/21 10:23:19;;;;;;;11.15;2.78;;;8.40;99.90;;;;;;5053957;28;20029;-84
2022/02/21 10:26:06;;;;;;;10.30;2.40;;;8.50;99.90;;;;;;5053783;28;20377;-84
2022/02/21 10:28:33;;;;;;;10.13;2.60;;;8.60;99.90;;;;;;5053958;28;20013;-84
2022/02/21 10:31:15;;;;;;;16.23;2.25;;;8.70;99.90;;;;;;5053847;28;20051;-84
2022/02/21 10:34:07;;;;;;;10.05;2.30;;;8.90;99.90;;;;;;5053715;28;20028;-88
2022/02/21 10:36:34;;;;;;;12.00;2.78;;;9.00;99.90;;;;;;5052939;28;20029;-87
2022/02/21 10:39:07;;;;;;;10.40;2.97;;;9.10;99.90;;;;;;5054383;28;20027;-84
2022/02/21 10:41:47;;;;;;;10.48;2.47;;;9.10;99.90;;;;;;5053640;28;20116;-84
2022/02/21 10:44:23;;;;;;;9.77;2.30;;;9.20;99.90;;;;;;5053862;28;20494;-83
2022/02/21 10:47:07;;;;;;;8.25;2.10;;;9.30;99.90;;;;;;5053884;28;20111;-84
2022/02/21 10:49:34;;;;;;;11.80;2.13;;;9.30;99.90;;;;;;5054811;28;20385;-84
2022/02/21 10:52:02;;;;;;;9.77;2.55;;;9.40;99.90;;;;;;5054759;28;20282;-83
2022/02/21 10:54:37;;;;;;;13.20;2.65;;;9.50;99.90;;;;;;5055152;28;20021;-83
2022/02/21 10:57:07;;;;;;;8.82;2.33;;;9.50;99.90;;;;;;5053570;28;20068;-84
2022/02/21 10:59:33;;;;;;;16.70;2.50;;;9.70;99.90;;;;;;5056656;28;20033;-83
2022/02/21 11:02:02;;;;;;;15.27;2.60;;;9.70;99.90;;;;;;5053130;28;20602;-83
2022/02/21 11:04:29;;;;;;;11.60;2.13;;;9.60;99.90;;;;;;5035223;28;20507;-83
2022/02/21 11:06:55;;;;;;;10.65;2.13;;;9.50;99.90;;;;;;5016685;28;20025;-85
2022/02/21 11:09:28;;;;;;;12.13;2.53;;;9.30;99.90;;;;;;5016480;28;20036;-84
2022/02/21 11:11:57;;;;;;;11.50;2.17;;;9.30;99.90;;;;;;5016530;28;20021;-84
2022/02/21 11:14:29;;;;;;;13.02;2.45;;;9.20;99.90;;;;;;5016501;28;20041;-83
2022/02/21 11:16:58;;;;;;;8.23;2.05;;;9.00;99.90;;;;;;5016429;28;20448;-84
2022/02/21 11:19:24;;;;;;;10.90;2.10;;;9.00;99.90;;;;;;5000189;28;20036;-83
2022/02/21 11:21:51;;;;;;;13.48;2.42;;;8.90;99.90;;;;;;5034078;28;20084;-84
2022/02/21 11:24:34;;;;;;;12.18;2.33;;;8.90;99.90;;;;;;5016194;28;20120;-84
2022/02/21 11:27:14;;;;;;;9.75;2.17;;;9.00;99.90;;;;;;5016308;28;20480;-83
2022/02/21 11:30:07;;;;;;;8.10;2.03;;;9.00;99.90;;;;;;5016361;28;20028;-83
2022/02/21 11:32:33;;;;;;;11.13;2.42;;;9.10;99.90;;;;;;5016170;28;20439;-85
2022/02/21 11:35:17;;;;;;;10.63;1.98;;;9.10;99.90;;;;;;5016392;28;20029;-84
2022/02/21 11:37:44;;;;;;;12.50;2.45;;;9.20;99.90;;;;;;5016183;28;20033;-83
2022/02/21 11:40:11;;;;;;;11.43;2.17;;;9.30;99.90;;;;;;5016130;28;20029;-83
2022/02/21 11:42:38;;;;;;;7.53;1.92;;;9.40;99.90;;;;;;5033785;28;20021;-85
2022/02/21 11:45:21;;;;;;;7.20;2.03;;;9.40;99.90;;;;;;5015833;28;20388;-83
2022/02/21 11:47:47;;;;;;;8.98;1.95;;;9.50;99.90;;;;;;5033639;28;20438;-83
2022/02/21 11:50:21;;;;;;;10.15;2.10;;;9.60;99.90;;;;;;5015870;28;20029;-83
2022/02/21 11:52:50;;;;;;;;;;;9.60;99.90;;;;;;5016152;28;20022;-83
2022/02/21 11:55:40;;;;;;;6.97;1.98;;;9.70;99.90;;;;;;5015872;28;19943;-84
2022/02/21 11:58:12;;;;;;;7.97;1.85;;;9.70;99.90;;;;;;5015766;28;20029;-83
2022/02/21 12:00:39;;;;;;;6.00;1.63;;;9.80;99.90;;;;;;5015727;28;20033;-84
2022/02/21 12:03:09;;;;;;;8.07;2.00;;;9.80;99.90;;;;;;5026978;28;20539;-83
2022/02/21 12:05:34;;;;;;;8.63;1.80;;;9.80;99.90;;;;;;5052746;28;20025;-87
2022/02/21 12:08:16;;;;;;;9.13;2.10;;;9.80;99.90;;;;;;5052160;28;20021;-85
2022/02/21 12:11:13;;;;;;;6.47;1.88;;;9.70;99.90;;;;;;5051796;28;20024;-84
2022/02/21 12:13:45;;;;;;;7.03;1.83;;;9.50;99.90;;;;;;5052332;28;20043;-84
2022/02/21 12:16:12;;;;;;;9.38;1.70;;;9.40;99.90;;;;;;5051896;28;20025;-86
2022/02/21 12:18:46;;;;;;;7.55;1.55;;;9.40;99.90;;;;;;5053115;28;20465;-87
2022/02/21 12:21:24;;;;;;;6.15;1.85;;;9.30;99.90;;;;;;5051846;28;20074;-83
2022/02/21 12:23:53;;;;;;;8.00;1.73;;;9.30;99.90;;;;;;5051787;28;20029;-83
2022/02/21 12:26:20;;;;;;;7.90;1.92;;;9.30;99.90;;;;;;5051866;28;20032;-84
2022/02/21 12:29:15;;;;;;;9.18;1.90;;;9.40;99.90;;;;;;5051869;28;20021;-84
2022/02/21 12:31:59;;;;;;;11.20;2.13;;;9.30;99.90;;;;;;5051861;28;20024;-84
2022/02/21 12:34:31;;;;;;;7.88;1.80;;;9.20;99.90;;;;;;5052992;28;20391;-85
2022/02/21 12:37:03;;;;;;;10.90;2.00;;;9.10;99.90;;;;;;5051623;28;20083;-83
2022/02/21 12:39:31;;;;;;;6.13;1.70;;;9.00;99.90;;;;;;5053011;28;20071;-84
2022/02/21 12:41:57;;;;;;;7.90;2.00;;;8.80;99.90;;;;;;5051682;28;20078;-83
2022/02/21 12:44:23;;;;;;;9.02;2.00;;;8.80;99.90;;;;;;5051380;28;20037;-82
2022/02/21 12:46:54;;;;;;;7.30;1.50;;;8.80;99.90;;;;;;5051632;28;20074;-83
2022/02/21 12:49:25;;;;;;;8.02;1.85;;;8.70;99.90;;;;;;5051612;28;20021;-85
2022/02/21 12:51:55;;;;;;;10.32;1.90;;;8.70;99.90;;;;;;5051581;28;20107;-84
2022/02/21 12:54:22;;;;;;;8.55;2.05;;;8.70;99.90;;;;;;5053102;28;20032;-83
2022/02/21 12:56:58;;;;;;;7.50;2.38;;;8.60;99.90;;;;;;5051455;28;20086;-83